KTSP/TSP METAR and TAF weather

Enter ICAO airport designator
Station Type Date Time Source
KTSP METAR 2021/09/28 03:55 UTC NOAA

KTSP 280355Z AUTO 29011KT 10SM BKN021 16/07 A3008 RMK AO2


Station Type Date Time Source
KTSP Decoded METAR 2021/09/28 03:55 UTC NOAA

Station name not available
Sep 27, 2021 - 11:55 PM EDT / 2021.09.28 0355 UTC
Wind: from the WNW (290 degrees) at 13 MPH (11 KT):0
Visibility: 10 mile(s):0
Sky conditions: mostly cloudy
Temperature: 60 F (16 C)
Dew Point: 44 F (7 C)
Relative Humidity: 55%
Pressure (altimeter): 30.08 in. Hg (1018 hPa)
ob: KTSP 280355Z AUTO 29011KT 10SM BKN021 16/07 A3008 RMK AO2
cycle: 4

Station Type Date Time Source
KTSP TAF UTC NOAA

Error!

Example: see airport list